Latest Weather Observations for Cooktown

IDQ60801

Issued at 8:32 pm EST Friday 26 February 2021 (issued every 10 minutes, with the page automatically refreshed every 10 minutes)

About weather observations | Map of weather stations | Latest weather observations for QLD | Other Formats
Station Details ID: 031209 Name: COOKTOWN AIRPORT Lat: -15.45 Lon: 145.19 Height: 4.8 m
Data from the previous 72 hours. | See also: Recent months at Cooktown
Date/Time
EST
Temp
°C
App
Temp
°C
Dew
Point
°C
Rel
Hum
%
Delta-T
°C
Wind Press
QNH
hPa
Press
MSL
hPa
Rain since
9am
mm
Dir  Spd
km/h
Gust
km/h
Spd
kts
Gust
kts
26/08:30pm 26.3 32.3 24.3 89 1.4 CALM 0 0 0 0 1005.1 1005.0 3.0
26/08:00pm 26.5 32.1 24.2 87 1.6 SSE 2 7 1 4 1004.9 1004.8 3.0
26/07:30pm 26.7 31.0 24.2 86 1.7 SE 9 15 5 8 1004.6 1004.5 3.0
26/07:00pm 26.8 31.4 24.1 85 1.9 SSE 7 11 4 6 1004.3 1004.2 3.0
26/06:30pm 26.9 31.7 24.4 86 1.7 ESE 7 11 4 6 1004.2 1004.1 3.0
26/06:07pm 27.6 32.4 24.2 82 2.4 ESE 6 9 3 5 1003.9 1003.8 3.0
26/06:00pm 27.8 34.0 24.6 83 2.2 CALM 0 9 0 5 1003.8 1003.7 3.0
26/05:48pm 27.9 34.0 24.5 82 2.4 CALM 0 0 0 0 1003.7 1003.6 3.0
26/05:30pm 27.9 32.7 24.5 82 2.4 SSE 7 13 4 7 1003.7 1003.6 3.0
26/05:00pm 28.2 33.2 24.8 82 2.4 ESE 7 11 4 6 1003.4 1003.3 3.0
26/04:30pm 28.1 32.7 24.7 82 2.4 SE 9 17 5 9 1003.3 1003.2 3.0
26/04:00pm 28.1 32.2 24.5 81 2.5 SSE 11 15 6 8 1003.0 1002.9 3.0
26/03:30pm 27.9 31.0 24.1 80 2.6 SE 15 22 8 12 1003.0 1002.9 3.0
26/03:00pm 28.1 32.0 24.3 80 2.6 SE 11 19 6 10 1002.9 1002.8 3.0
26/02:30pm 27.9 31.2 24.5 82 2.4 SE 15 20 8 11 1003.0 1002.9 3.0
26/02:28pm 27.8 31.0 24.4 82 2.4 SE 15 20 8 11 1003.0 1002.9 3.0
26/02:14pm 27.9 32.2 24.9 84 2.1 SE 11 19 6 10 1003.3 1003.2 3.0
26/02:00pm 27.7 31.8 24.5 83 2.2 SE 11 15 6 8 1003.5 1003.4 3.0
26/01:30pm 27.7 31.8 24.5 83 2.2 SE 11 17 6 9 1004.1 1004.0 3.0
26/01:00pm 27.0 31.4 24.5 86 1.7 SE 9 15 5 8 1004.4 1004.3 3.0
26/12:30pm 27.4 30.3 23.8 81 2.5 SE 15 22 8 12 1004.8 1004.7 3.0
26/12:00pm 27.3 30.8 24.2 83 2.1 ESE 13 19 7 10 1005.2 1005.1 3.0
26/11:54am 27.1 29.8 24.2 84 2.0 ESE 17 22 9 12 1005.3 1005.2 3.0
26/11:30am 28.1 29.9 24.9 83 2.2 ESE 24 33 13 18 1005.3 1005.2 3.0
26/11:25am 28.0 29.5 24.4 81 2.5 E 24 33 13 18 1005.4 1005.3 3.0
26/11:12am 28.3 30.6 25.7 86 1.8 E 24 32 13 17 1005.4 1005.3 2.8
26/11:00am 27.7 31.7 25.1 86 1.8 SE 13 20 7 11 1005.4 1005.3 2.8
26/10:58am 27.6 31.5 24.8 85 2.0 SE 13 20 7 11 1005.5 1005.4 2.8
26/10:30am 28.3 32.4 25.7 86 1.8 SSE 15 22 8 12 1005.7 1005.6 2.8
26/10:07am 26.8 30.7 24.8 89 1.4 SSE 13 17 7 9 1005.9 1005.8 2.8
26/10:06am 26.9 31.3 25.1 90 1.3 SE 11 17 6 9 1005.8 1005.7 2.8
26/10:00am 26.8 31.2 25.0 90 1.3 SE 11 17 6 9 1005.8 1005.7 2.8
26/09:34am 27.1 31.3 24.7 87 1.7 S 11 13 6 7 1005.8 1005.7 1.0
26/09:30am 27.4 31.6 24.8 86 1.8 S 11 13 6 7 1005.7 1005.6 0.0
26/09:00am 27.8 34.8 26.4 92 1.0 SW 2 7 1 4 1005.7 1005.6 3.4
26/08:30am 26.1 31.4 24.9 93 0.8 S 6 11 3 6 1005.5 1005.4 3.4
26/08:00am 25.3 30.9 24.3 94 0.7 SSW 2 6 1 3 1005.4 1005.3 3.4
26/07:52am 25.2 31.2 24.2 94 0.7 CALM 0 0 0 0 1005.3 1005.2 3.4
26/07:50am 25.0 30.8 24.0 94 0.7 CALM 0 0 0 0 1005.3 1005.2 3.4
26/07:45am 25.0 30.8 24.0 94 0.7 CALM 0 0 0 0 1005.2 1005.1 3.4
26/07:30am 24.9 30.7 24.0 95 0.6 CALM 0 0 0 0 1005.2 1005.1 3.4
26/07:21am 24.9 30.7 24.0 95 0.6 CALM 0 0 0 0 1005.0 1004.9 2.8
26/07:18am 24.9 30.7 24.0 95 0.6 CALM 0 0 0 0 1004.9 1004.8 2.4
26/07:00am 24.8 29.5 23.9 95 0.6 SW 6 7 3 4 1004.5 1004.4 2.4
26/06:30am 24.7 30.1 23.8 95 0.6 SW 2 7 1 4 1004.2 1004.1 2.4
26/06:00am 24.7 30.4 23.8 95 0.6 CALM 0 0 0 0 1003.9 1003.8 2.4
26/05:30am 24.7 29.1 23.8 95 0.6 S 7 11 4 6 1003.6 1003.5 2.4
26/05:11am 24.7 28.7 23.8 95 0.6 S 9 15 5 8 1003.4 1003.3 2.4
26/05:00am 24.7 29.1 23.8 95 0.6 SSE 7 11 4 6 1003.3 1003.2 2.4
26/04:59am 24.7 29.0 23.7 94 0.7 SSE 7 11 4 6 1003.4 1003.3 2.4
26/04:40am 24.8 28.8 23.8 94 0.7 SSE 9 13 5 7 1003.4 1003.3 2.0
26/04:30am 24.9 29.2 23.7 93 0.8 S 7 11 4 6 1003.3 1003.2 1.6
26/04:15am 24.7 29.1 23.5 93 0.8 SSE 6 7 3 4 1003.3 1003.2 1.6
26/04:12am 24.7 29.1 23.5 93 0.8 SSE 6 7 3 4 1003.2 1003.1 1.6
26/04:00am 24.7 30.3 23.5 93 0.8 CALM 0 6 0 3 1003.1 1003.0 1.6
26/03:30am 24.7 30.3 23.5 93 0.8 CALM 0 4 0 2 1003.1 1003.0 1.6
26/03:26am 24.7 29.9 23.5 93 0.8 S 2 7 1 4 1003.1 1003.0 1.6
26/03:16am 24.7 28.9 23.5 93 0.8 S 7 13 4 7 1003.1 1003.0 1.6
26/03:02am 25.0 30.5 24.0 94 0.7 SSE 2 7 1 4 1003.5 1003.4 1.6
26/03:00am 25.0 30.5 24.0 94 0.7 SSE 2 7 1 4 1003.5 1003.4 1.6
26/02:30am 25.0 30.8 24.0 94 0.7 CALM 0 6 0 3 1003.5 1003.4 1.6
26/02:00am 24.9 30.7 23.9 94 0.7 CALM 0 0 0 0 1003.7 1003.6 1.6
26/01:30am 25.1 30.9 23.9 93 0.8 CALM 0 0 0 0 1003.9 1003.8 1.6
26/01:00am 25.4 30.1 24.0 92 1.0 WNW 6 7 3 4 1004.6 1004.5 1.6
26/12:30am 25.4 30.9 24.0 92 1.0 W 2 7 1 4 1005.0 1004.9 1.6
26/12:00am 25.2 30.8 23.6 91 1.1 CALM 0 0 0 0 1005.5 1005.4 1.6
 
Date/Time
EST
Temp
°C
App
Temp
°C
Dew
Point
°C
Rel
Hum
%
Delta-T
°C
Wind Press
QNH
hPa
Press
MSL
hPa
Rain since
9am
mm
Dir  Spd
km/h
Gust
km/h
Spd
kts
Gust
kts
25/11:30pm 25.4 31.2 24.0 92 1.0 CALM 0 0 0 0 1005.7 1005.6 1.6
25/11:00pm 25.5 31.2 23.7 90 1.2 CALM 0 0 0 0 1006.0 1005.9 1.6
25/10:30pm 25.7 31.5 23.9 90 1.2 CALM 0 0 0 0 1006.2 1006.1 1.6
25/10:00pm 25.8 30.4 23.8 89 1.4 W 6 7 3 4 1006.3 1006.2 1.6
25/09:30pm 26.1 31.5 23.2 84 2.0 CALM 0 6 0 3 1006.0 1005.9 1.6
25/09:00pm 26.6 30.2 23.1 81 2.4 SE 9 15 5 8 1006.0 1005.9 1.6
25/08:30pm 26.7 29.6 23.2 81 2.4 ESE 13 20 7 11 1005.7 1005.6 1.6
25/08:00pm 26.8 28.3 23.1 80 2.5 ESE 20 30 11 16 1005.2 1005.1 1.6
25/07:30pm 26.8 29.7 23.9 84 2.0 SE 15 28 8 15 1004.9 1004.8 1.6
25/07:00pm 26.8 29.6 23.7 83 2.1 ESE 15 22 8 12 1004.7 1004.6 1.6
25/06:30pm 26.6 29.7 23.5 83 2.1 SE 13 20 7 11 1004.2 1004.1 1.6
25/06:00pm 27.0 29.3 23.5 81 2.4 ESE 17 26 9 14 1004.0 1003.9 1.6
25/05:30pm 27.5 29.8 23.5 79 2.7 ESE 17 22 9 12 1003.7 1003.6 1.6
25/05:00pm 27.9 30.0 24.1 80 2.6 ESE 20 28 11 15 1003.3 1003.2 1.6
25/04:30pm 28.2 30.2 23.6 76 3.2 ESE 19 26 10 14 1002.9 1002.8 1.6
25/04:00pm 28.7 30.3 22.9 71 4.0 ESE 19 28 10 15 1003.0 1002.9 1.6
25/03:30pm 29.6 31.5 22.8 67 4.6 SE 17 22 9 12 1002.8 1002.7 1.6
25/03:00pm 29.7 31.7 23.6 69 4.2 SE 19 26 10 14 1003.1 1003.0 1.6
25/02:30pm 30.3 32.9 24.9 73 3.8 SE 20 32 11 17 1003.5 1003.4 1.6
25/02:00pm 30.3 32.8 24.7 72 3.9 ESE 20 30 11 16 1003.6 1003.5 1.6
25/01:30pm 28.6 31.5 24.4 78 2.9 ESE 17 24 9 13 1004.3 1004.2 1.6
25/01:00pm 28.9 30.9 24.0 75 3.4 SSE 20 30 11 16 1004.8 1004.7 1.6
25/12:30pm 28.2 31.0 25.0 83 2.2 ESE 19 26 10 14 1005.3 1005.2 1.6
25/12:00pm 28.3 33.2 25.3 84 2.1 ESE 9 15 5 8 1005.8 1005.7 1.6
25/11:30am 27.2 32.1 25.2 89 1.4 SE 9 13 5 7 1006.2 1006.1 1.6
25/11:00am 26.7 31.6 25.3 92 1.0 SE 9 13 5 7 1006.4 1006.3 1.6
25/10:56am 26.8 31.9 25.6 93 0.8 SE 9 13 5 7 1006.5 1006.4 1.6
25/10:46am 26.2 30.8 24.8 92 1.0 SE 9 13 5 7 1006.7 1006.6 1.6
25/10:33am 26.0 28.7 24.2 90 1.2 ESE 17 22 9 12 1006.9 1006.8 1.0
25/10:30am 26.2 28.9 24.2 89 1.4 ESE 17 22 9 12 1007.0 1006.9 0.4
25/10:12am 26.9 32.3 25.1 90 1.3 SE 6 9 3 5 1007.1 1007.0 0.2
25/10:00am 26.8 32.1 25.0 90 1.3 S 6 7 3 4 1007.0 1006.9 0.2
25/09:30am 26.2 31.5 25.0 93 0.8 SW 6 7 3 4 1006.8 1006.7 0.2
25/09:00am 25.7 30.6 24.7 94 0.7 SSE 7 11 4 6 1006.7 1006.6 15.6
25/08:30am 25.5 31.6 24.5 94 0.7 CALM 0 0 0 0 1006.4 1006.3 15.4
25/08:00am 24.9 29.4 24.0 95 0.6 W 7 11 4 6 1006.2 1006.1 15.2
25/07:59am 24.9 29.4 24.0 95 0.6 W 7 11 4 6 1006.2 1006.1 15.2
25/07:39am 24.5 29.7 23.6 95 0.6 S 2 7 1 4 1006.5 1006.4 14.8
25/07:32am 24.2 28.5 23.3 95 0.6 S 6 9 3 5 1006.5 1006.4 14.6
25/07:30am 24.2 28.5 23.3 95 0.6 S 6 9 3 5 1006.4 1006.3 14.6
25/07:17am 24.2 27.9 23.3 95 0.6 S 9 15 5 8 1006.3 1006.2 14.2
25/07:05am 24.4 28.4 23.7 96 0.5 ESE 9 15 5 8 1006.3 1006.2 12.8
25/07:00am 24.6 29.6 23.9 96 0.5 ENE 4 13 2 7 1006.2 1006.1 12.2
25/06:59am 24.6 30.0 23.9 96 0.5 NE 2 13 1 7 1006.2 1006.1 12.0
25/06:30am 24.5 28.9 23.8 96 0.5 W 7 9 4 5 1005.5 1005.4 11.6
25/06:00am 24.4 28.7 23.7 96 0.5 W 7 9 4 5 1005.1 1005.0 11.4
25/05:30am 24.3 28.8 23.6 96 0.5 W 6 9 3 5 1004.9 1004.8 11.4
25/05:01am 24.4 29.3 23.7 96 0.5 NW 4 9 2 5 1004.4 1004.3 11.4
25/05:00am 24.4 29.3 23.7 96 0.5 NW 4 9 2 5 1004.4 1004.3 11.4
25/04:36am 24.5 29.7 23.6 95 0.6 NW 2 11 1 6 1004.8 1004.7 9.0
25/04:30am 24.5 30.1 23.6 95 0.6 CALM 0 0 0 0 1004.4 1004.3 6.8
25/04:00am 24.5 30.1 23.6 95 0.6 CALM 0 2 0 1 1004.3 1004.2 6.8
25/03:30am 24.4 30.0 23.5 95 0.6 CALM 0 0 0 0 1004.7 1004.6 6.2
25/03:01am 24.2 28.3 23.3 95 0.6 SSW 7 11 4 6 1004.8 1004.7 6.2
25/03:00am 24.2 28.3 23.3 95 0.6 SSW 7 11 4 6 1004.8 1004.7 6.2
25/02:46am 24.1 28.3 23.2 95 0.6 W 6 7 3 4 1004.8 1004.7 6.2
25/02:30am 24.2 28.5 23.3 95 0.6 WNW 6 9 3 5 1005.0 1004.9 6.2
25/02:20am 24.2 28.5 23.3 95 0.6 W 6 7 3 4 1005.1 1005.0 6.2
25/02:01am 24.2 28.5 23.3 95 0.6 WSW 6 11 3 6 1005.3 1005.2 6.2
25/02:00am 24.3 28.7 23.4 95 0.6 WSW 6 11 3 6 1005.4 1005.3 6.2
25/01:30am 24.4 30.0 23.5 95 0.6 CALM 0 0 0 0 1005.7 1005.6 6.2
25/01:00am 24.5 28.9 23.5 94 0.7 S 6 7 3 4 1005.9 1005.8 6.2
25/12:30am 24.7 29.3 23.8 95 0.6 SSE 6 9 3 5 1006.3 1006.2 6.2
25/12:26am 24.7 29.3 23.8 95 0.6 SE 6 9 3 5 1006.4 1006.3 6.2
25/12:16am 24.7 28.7 23.7 94 0.7 ESE 9 13 5 7 1006.5 1006.4 6.2
25/12:10am 24.7 28.7 23.7 94 0.7 SE 9 13 5 7 1006.6 1006.5 6.2
25/12:00am 24.7 27.9 23.7 94 0.7 ESE 13 22 7 12 1006.7 1006.6 6.2
 
Date/Time
EST
Temp
°C
App
Temp
°C
Dew
Point
°C
Rel
Hum
%
Delta-T
°C
Wind Press
QNH
hPa
Press
MSL
hPa
Rain since
9am
mm
Dir  Spd
km/h
Gust
km/h
Spd
kts
Gust
kts
24/11:59pm 24.7 27.5 23.7 94 0.7 ESE 15 22 8 12 1006.8 1006.7 6.2
24/11:30pm 24.6 29.0 23.4 93 0.8 S 6 9 3 5 1007.1 1007.0 3.2
24/11:11pm 24.9 29.3 23.5 92 1.0 W 6 11 3 6 1007.0 1006.9 1.4
24/11:00pm 24.9 28.4 23.5 92 1.0 NW 11 15 6 8 1007.0 1006.9 1.0
24/10:46pm 25.1 28.6 23.5 91 1.1 N 11 17 6 9 1007.2 1007.1 0.6
24/10:30pm 24.9 29.2 23.7 93 0.8 NW 7 13 4 7 1007.3 1007.2 0.6
24/10:00pm 24.6 30.0 23.2 92 1.0 CALM 0 0 0 0 1007.2 1007.1 0.6
24/09:30pm 24.7 28.7 23.1 91 1.1 E 7 9 4 5 1007.3 1007.2 0.6
24/09:22pm 24.8 29.0 23.4 92 1.0 E 7 9 4 5 1007.2 1007.1 0.6
24/09:00pm 25.4 30.2 24.4 94 0.7 ESE 7 9 4 5 1007.2 1007.1 0.6
24/08:37pm 25.2 29.3 24.0 93 0.8 SSW 9 15 5 8 1007.3 1007.2 0.4
24/08:30pm 25.2 30.2 23.8 92 1.0 N 4 11 2 6 1007.3 1007.2 0.4
24/08:00pm 25.4 31.1 23.8 91 1.1 CALM 0 0 0 0 1006.9 1006.8 0.4
24/07:30pm 25.7 31.4 23.7 89 1.4 CALM 0 0 0 0 1006.4 1006.3 0.4
24/07:00pm 26.2 31.9 23.7 86 1.7 CALM 0 6 0 3 1006.2 1006.1 0.4
24/06:30pm 26.5 31.5 23.2 82 2.2 ENE 2 6 1 3 1005.8 1005.7 0.4
24/06:00pm 26.7 30.3 23.0 80 2.5 ENE 9 13 5 7 1005.6 1005.5 0.4
24/05:30pm 27.1 29.6 23.1 79 2.7 ENE 15 20 8 11 1005.3 1005.2 0.4
24/05:00pm 26.8 30.5 23.3 81 2.4 E 9 15 5 8 1005.2 1005.1 0.4
24/04:30pm 25.9 29.4 21.8 78 2.7 N 6 13 3 7 1005.3 1005.2 0.4
24/04:00pm 25.1 28.5 21.6 81 2.3 SSE 6 7 3 4 1005.3 1005.2 0.4
24/03:43pm 24.0 26.3 21.3 85 1.8 ESE 11 22 6 12 1005.9 1005.8 0.4
24/03:33pm 23.7 22.7 21.2 86 1.6 E 28 48 15 26 1006.2 1006.1 0.4
24/03:30pm 23.7 22.0 20.6 83 2.0 ENE 30 48 16 26 1006.3 1006.2 0.4
24/03:25pm 24.8 23.4 21.1 80 2.4 ENE 30 48 16 26 1006.2 1006.1 0.2
24/03:00pm 28.0 30.6 24.0 79 2.8 ESE 17 22 9 12 1005.5 1005.4 0.2
24/02:30pm 26.8 31.1 24.3 86 1.7 ESE 9 15 5 8 1005.7 1005.6 0.2
24/02:00pm 26.0 28.4 23.7 87 1.6 E 17 24 9 13 1006.6 1006.5 0.2
24/01:30pm 29.1 29.2 22.6 68 4.4 ENE 26 37 14 20 1006.4 1006.3 0.2
24/01:00pm 27.2 26.4 22.4 75 3.2 E 30 46 16 25 1006.8 1006.7 0.2
24/12:30pm 31.2 34.0 25.3 71 4.2 ESE 20 33 11 18 1006.5 1006.4 0.0
24/12:00pm 29.6 33.3 25.8 80 2.7 E 17 24 9 13 1006.9 1006.8 0.0
24/11:30am 27.8 31.7 24.8 84 2.1 E 13 22 7 12 1007.3 1007.2 0.0
24/11:00am 30.0 32.2 23.9 70 4.2 ESE 19 26 10 14 1007.5 1007.4 0.0
24/10:30am 29.5 32.5 23.4 69 4.2 SE 13 20 7 11 1007.8 1007.7 0.0
24/10:00am 28.6 32.3 23.9 75 3.3 SSE 11 19 6 10 1007.8 1007.7 0.0
24/09:30am 28.4 32.6 24.8 81 2.5 SE 11 15 6 8 1007.7 1007.6 0.0
24/09:00am 26.8 29.5 23.5 82 2.3 SSE 15 20 8 11 1007.6 1007.5 1.8
24/08:45am 27.0 29.9 24.5 86 1.7 SE 17 26 9 14 1007.4 1007.3 1.8
24/08:30am 26.9 30.8 24.9 89 1.4 SE 13 20 7 11 1007.2 1007.1 1.8
24/08:10am 26.2 30.3 25.2 94 0.7 SSE 13 19 7 10 1007.0 1006.9 1.8
24/08:00am 25.9 30.6 25.0 95 0.6 SSE 9 17 5 9 1006.8 1006.7 1.8
24/07:30am 24.8 30.6 23.9 95 0.6 CALM 0 0 0 0 1006.6 1006.5 1.8
24/07:00am 24.7 30.4 23.8 95 0.6 CALM 0 0 0 0 1006.2 1006.1 1.8
24/06:30am 24.4 30.0 23.5 95 0.6 CALM 0 0 0 0 1006.0 1005.9 1.8
24/06:00am 24.6 30.3 23.7 95 0.6 CALM 0 0 0 0 1005.9 1005.8 1.8
24/05:30am 24.7 30.1 23.8 95 0.6 W 2 6 1 3 1005.6 1005.5 1.8
24/05:00am 24.5 30.1 23.6 95 0.6 CALM 0 0 0 0 1005.2 1005.1 1.6
24/04:30am 24.5 29.4 23.6 95 0.6 WNW 4 7 2 4 1005.3 1005.2 1.6
24/04:00am 24.3 29.8 23.4 95 0.6 CALM 0 0 0 0 1005.5 1005.4 1.6
24/03:32am 24.4 29.9 23.4 94 0.7 CALM 0 0 0 0 1005.2 1005.1 1.6
24/03:30am 24.3 29.7 23.3 94 0.7 CALM 0 0 0 0 1005.2 1005.1 1.6
24/03:16am 24.4 29.9 23.4 94 0.7 CALM 0 0 0 0 1005.3 1005.2 1.6
24/03:00am 24.3 28.6 23.3 94 0.7 WNW 6 7 3 4 1005.6 1005.5 1.2
24/02:30am 24.3 29.6 23.1 93 0.8 CALM 0 0 0 0 1005.8 1005.7 1.2
24/02:00am 24.6 29.6 23.2 92 1.0 WNW 2 7 1 4 1006.1 1006.0 1.2
24/01:36am 24.8 29.0 23.2 91 1.1 WNW 6 7 3 4 1006.5 1006.4 1.2
24/01:30am 24.7 28.9 23.1 91 1.1 WNW 6 7 3 4 1006.6 1006.5 1.2
24/01:14am 25.2 28.6 23.4 90 1.2 NE 11 20 6 11 1007.0 1006.9 1.0
24/01:00am 25.3 27.7 23.7 91 1.1 N 17 26 9 14 1007.0 1006.9 0.8
24/12:56am 25.8 29.7 24.8 94 0.7 N 13 20 7 11 1007.0 1006.9 0.8
24/12:49am 26.0 30.7 25.0 94 0.7 NW 9 11 5 6 1007.0 1006.9 0.0
24/12:30am 25.9 31.0 24.9 94 0.7 NW 7 11 4 6 1007.2 1007.1 0.0
24/12:00am 25.8 31.0 24.8 94 0.7 WNW 6 7 3 4 1007.3 1007.2 0.0
 
Date/Time
EST
Temp
°C
App
Temp
°C
Dew
Point
°C
Rel
Hum
%
Delta-T
°C
Wind Press
QNH
hPa
Press
MSL
hPa
Rain since
9am
mm
Dir  Spd
km/h
Gust
km/h
Spd
kts
Gust
kts
23/11:30pm 26.1 31.4 24.9 93 0.8 W 6 6 3 3 1007.6 1007.5 0.0
23/11:00pm 26.2 31.3 25.0 93 0.8 W 7 11 4 6 1007.9 1007.8 0.0
23/10:30pm 26.3 31.8 25.3 94 0.7 WNW 6 7 3 4 1007.7 1007.6 0.0
23/10:00pm 26.0 32.3 24.8 93 0.8 CALM 0 0 0 0 1007.3 1007.2 0.0
23/09:30pm 26.1 32.4 24.7 92 1.0 CALM 0 0 0 0 1007.0 1006.9 0.0
23/09:00pm 26.3 32.6 24.7 91 1.1 CALM 0 0 0 0 1006.8 1006.7 0.0

Other formats

Comma delimited format used in spreadsheet applications
http://www.bom.gov.au/fwo/IDQ60801/IDQ60801.95283.axf

JavaScript Object Notation format (JSON) in row-major order
http://www.bom.gov.au/fwo/IDQ60801/IDQ60801.95283.json

Data quality

Most of these data are generated automatically and are frequently updated. Quality checks on data are not normally performed. It is possible for incorrect values to appear. Refer to information at About Latest Weather Observations and please check the disclaimer before using these data.